createdAt,value
2019-06-08T00:01:12.242Z,49.40
2019-06-08T00:03:38.641Z,49.30
2019-06-08T00:06:05.235Z,49.40
2019-06-08T00:08:31.629Z,49.20
2019-06-08T00:10:58.035Z,49.30
2019-06-08T00:13:24.329Z,49.90
2019-06-08T00:15:51.150Z,49.30
2019-06-08T00:18:17.811Z,49.30
2019-06-08T00:20:44.260Z,49.30
2019-06-08T00:23:10.636Z,49.30
2019-06-08T00:25:37.387Z,49.30
2019-06-08T00:28:04.861Z,49.50
2019-06-08T00:30:31.300Z,49.60
2019-06-08T00:32:57.818Z,49.70
2019-06-08T00:35:24.912Z,49.80
2019-06-08T00:37:51.728Z,49.80
2019-06-08T00:40:18.914Z,49.90
2019-06-08T00:42:45.275Z,50.20
2019-06-08T00:45:12.238Z,50.00
2019-06-08T00:47:47.464Z,50.10
2019-06-08T00:50:07.417Z,50.30
2019-06-08T00:52:33.767Z,50.30
2019-06-08T00:55:00.117Z,50.40
2019-06-08T00:57:26.555Z,50.30
2019-06-08T00:59:53.042Z,50.30
2019-06-08T01:02:20.388Z,50.30
2019-06-08T01:04:47.477Z,50.40
2019-06-08T01:07:13.923Z,50.60
2019-06-08T01:09:40.254Z,50.50
2019-06-08T01:12:06.629Z,50.80
2019-06-08T01:14:33.155Z,50.80
2019-06-08T01:16:59.548Z,50.70
2019-06-08T01:19:25.783Z,50.70
2019-06-08T01:21:52.062Z,50.70
2019-06-08T01:24:19.671Z,50.60
2019-06-08T01:26:46.131Z,50.60
2019-06-08T01:29:12.352Z,50.70
2019-06-08T01:31:38.669Z,50.80
2019-06-08T01:34:05.119Z,50.80
2019-06-08T01:36:31.503Z,50.90
2019-06-08T01:38:57.910Z,50.60
2019-06-08T01:41:25.446Z,50.70
2019-06-08T01:43:51.973Z,50.60
2019-06-08T01:46:18.505Z,50.60
2019-06-08T01:48:44.923Z,50.40
2019-06-08T01:51:11.488Z,50.30
2019-06-08T01:53:37.699Z,50.10
2019-06-08T01:56:03.992Z,50.20
2019-06-08T01:58:31.453Z,50.30
2019-06-08T02:00:58.018Z,50.10
2019-06-08T02:03:24.421Z,49.50
2019-06-08T02:05:50.821Z,49.80
2019-06-08T02:08:17.190Z,49.70
2019-06-08T02:10:43.838Z,49.60
2019-06-08T02:13:10.157Z,49.20
2019-06-08T02:15:36.388Z,49.40
2019-06-08T02:18:02.839Z,49.40
2019-06-08T02:20:30.750Z,49.30
2019-06-08T02:22:57.453Z,49.10
2019-06-08T02:25:27.443Z,49.20
2019-06-08T02:27:54.687Z,49.20
2019-06-08T02:30:21.504Z,49.50
2019-06-08T02:32:47.929Z,49.10
2019-06-08T02:35:15.712Z,49.10
2019-06-08T02:37:42.029Z,49.20
2019-06-08T02:40:08.483Z,49.30
2019-06-08T02:42:36.994Z,49.10
2019-06-08T02:45:04.881Z,49.20
2019-06-08T02:47:32.582Z,49.20
2019-06-08T02:49:59.495Z,48.60
2019-06-08T02:52:27.191Z,48.60
2019-06-08T02:54:54.448Z,49.30
2019-06-08T02:57:23.636Z,48.50
2019-06-08T02:59:52.938Z,48.20
2019-06-08T03:02:20.067Z,48.00
2019-06-08T03:04:46.869Z,48.00
2019-06-08T03:07:15.139Z,48.10
2019-06-08T03:09:43.650Z,48.10
2019-06-08T03:12:09.875Z,48.00
2019-06-08T03:14:39.634Z,47.70
2019-06-08T03:17:06.373Z,47.80
2019-06-08T03:19:33.335Z,47.90
2019-06-08T03:21:59.882Z,47.70
2019-06-08T03:24:26.126Z,47.50
2019-06-08T03:26:52.767Z,47.50
2019-06-08T03:29:19.197Z,47.50
2019-06-08T03:31:54.244Z,47.70
2019-06-08T03:34:14.163Z,47.70
2019-06-08T03:36:53.617Z,47.80
2019-06-08T03:39:09.980Z,47.70
2019-06-08T03:41:38.272Z,47.60
2019-06-08T03:44:04.538Z,47.50
2019-06-08T03:46:31.090Z,47.60
2019-06-08T03:48:57.704Z,47.70
2019-06-08T03:51:24.200Z,47.50
2019-06-08T03:53:50.525Z,47.30
2019-06-08T03:56:16.973Z,47.50
2019-06-08T03:58:44.983Z,47.70
2019-06-08T04:01:11.483Z,47.70
2019-06-08T04:03:38.147Z,47.50
2019-06-08T04:06:06.078Z,47.70
2019-06-08T04:08:32.694Z,47.60
2019-06-08T04:10:59.135Z,47.70
2019-06-08T04:13:25.810Z,47.60
2019-06-08T04:15:52.171Z,47.60
2019-06-08T04:18:18.848Z,47.60
2019-06-08T04:20:46.524Z,47.60
2019-06-08T04:23:13.459Z,47.60
2019-06-08T04:25:40.652Z,47.80
2019-06-08T04:28:07.961Z,47.40
2019-06-08T04:30:34.371Z,47.40
2019-06-08T04:33:00.841Z,47.40
2019-06-08T04:35:27.250Z,47.30
2019-06-08T04:37:54.090Z,47.30
2019-06-08T04:40:20.908Z,47.50
2019-06-08T04:42:49.409Z,47.40
2019-06-08T04:45:15.780Z,47.60
2019-06-08T04:47:43.612Z,47.40
2019-06-08T04:50:22.879Z,47.40
2019-06-08T04:52:40.795Z,47.50
2019-06-08T04:55:07.819Z,47.30
2019-06-08T04:57:34.156Z,47.30
2019-06-08T05:00:10.697Z,47.30
2019-06-08T05:02:28.838Z,47.40
2019-06-08T05:04:55.370Z,47.20
2019-06-08T05:07:21.719Z,47.60
2019-06-08T05:09:49.474Z,47.30
2019-06-08T05:12:16.096Z,47.50
2019-06-08T05:14:43.031Z,47.40
2019-06-08T05:17:09.513Z,47.20
2019-06-08T05:19:36.054Z,47.40
2019-06-08T05:22:02.701Z,47.10
2019-06-08T05:24:29.119Z,47.40
2019-06-08T05:26:55.507Z,47.10
2019-06-08T05:29:22.104Z,47.20
2019-06-08T05:31:49.769Z,47.10
2019-06-08T05:34:16.464Z,47.00
2019-06-08T05:36:43.382Z,47.30
2019-06-08T05:39:10.063Z,47.30
2019-06-08T05:41:36.523Z,47.20
2019-06-08T05:44:03.593Z,47.40
2019-06-08T05:46:29.870Z,47.40
2019-06-08T05:48:56.186Z,47.40
2019-06-08T05:51:22.933Z,47.30
2019-06-08T05:53:50.168Z,47.90
2019-06-08T05:56:16.947Z,47.40
2019-06-08T05:58:43.936Z,47.50
2019-06-08T06:01:10.300Z,47.70
2019-06-08T06:03:36.589Z,47.50
2019-06-08T06:06:03.249Z,47.50
2019-06-08T06:08:30.693Z,47.90
2019-06-08T06:10:57.134Z,48.20
2019-06-08T06:13:23.508Z,48.30
2019-06-08T06:15:51.534Z,48.40
2019-06-08T06:18:18.146Z,48.40
2019-06-08T06:20:45.359Z,48.50
2019-06-08T06:23:11.973Z,48.50
2019-06-08T06:25:38.264Z,48.60
2019-06-08T06:28:06.363Z,48.70
2019-06-08T06:30:32.951Z,48.50
2019-06-08T06:32:59.508Z,48.50
2019-06-08T06:35:26.199Z,48.60
2019-06-08T06:37:52.837Z,48.60
2019-06-08T06:40:19.309Z,48.50
2019-06-08T06:42:46.023Z,48.60
2019-06-08T06:45:12.666Z,48.40
2019-06-08T06:47:39.584Z,48.50
2019-06-08T06:50:07.843Z,48.60
2019-06-08T06:52:34.340Z,48.50
2019-06-08T06:55:00.816Z,48.70
2019-06-08T06:57:28.019Z,48.60
2019-06-08T06:59:54.589Z,48.50
2019-06-08T07:02:21.219Z,48.30
2019-06-08T07:04:48.193Z,48.30
2019-06-08T07:07:14.905Z,48.40
2019-06-08T07:09:41.314Z,48.40
2019-06-08T07:12:07.874Z,48.50
2019-06-08T07:14:34.851Z,48.50
2019-06-08T07:17:01.573Z,48.50
2019-06-08T07:19:28.041Z,48.70
2019-06-08T07:21:54.953Z,49.50
2019-06-08T07:24:21.323Z,49.90
2019-06-08T07:26:48.255Z,50.30
2019-06-08T07:29:14.685Z,50.40
2019-06-08T07:31:40.912Z,50.70
2019-06-08T07:34:07.307Z,50.90
2019-06-08T07:36:33.795Z,50.80
2019-06-08T07:39:00.279Z,50.80
2019-06-08T07:41:26.531Z,51.40
2019-06-08T07:43:54.424Z,51.60
2019-06-08T07:46:20.892Z,52.30
2019-06-08T07:48:48.091Z,53.20
2019-06-08T07:51:14.559Z,53.30
2019-06-08T07:53:40.938Z,54.20
2019-06-08T07:56:07.708Z,55.00
2019-06-08T07:58:34.058Z,55.00
2019-06-08T08:01:07.730Z,55.40
2019-06-08T08:03:28.558Z,56.00
2019-06-08T08:05:55.422Z,56.20
2019-06-08T08:08:23.278Z,56.30
2019-06-08T08:10:50.355Z,56.30
2019-06-08T08:13:17.045Z,56.60
2019-06-08T08:15:44.448Z,56.60
2019-06-08T08:18:10.889Z,56.50
2019-06-08T08:20:37.533Z,56.80
2019-06-08T08:23:06.245Z,56.80
2019-06-08T08:25:32.434Z,56.50
2019-06-08T08:28:00.692Z,55.50
2019-06-08T08:30:28.455Z,55.50
2019-06-08T08:32:56.244Z,55.60
2019-06-08T08:35:23.285Z,55.50
2019-06-08T08:37:53.125Z,55.40
2019-06-08T08:40:18.580Z,55.40
2019-06-08T08:42:44.977Z,55.20
2019-06-08T08:45:12.000Z,54.50
2019-06-08T08:47:38.893Z,54.80
2019-06-08T08:50:07.431Z,54.30
2019-06-08T08:52:37.427Z,54.20
2019-06-08T08:55:03.708Z,54.30
2019-06-08T08:57:30.181Z,54.40
2019-06-08T09:00:01.025Z,54.20
2019-06-08T09:02:25.010Z,53.60
2019-06-08T09:04:52.127Z,53.70
2019-06-08T09:07:19.996Z,53.80
2019-06-08T09:09:48.259Z,53.70
2019-06-08T09:12:14.669Z,53.70
2019-06-08T09:14:41.503Z,54.00
2019-06-08T09:17:08.777Z,53.50
2019-06-08T09:19:37.994Z,53.70
2019-06-08T09:22:04.020Z,53.80
2019-06-08T09:24:31.560Z,53.70
2019-06-08T09:27:00.890Z,53.10
2019-06-08T09:29:28.915Z,53.40
2019-06-08T09:31:55.946Z,53.30
2019-06-08T09:34:24.051Z,53.30
2019-06-08T09:36:50.610Z,53.20
2019-06-08T09:39:18.607Z,53.50
2019-06-08T09:41:47.751Z,53.20
2019-06-08T09:44:13.847Z,53.30
2019-06-08T09:46:40.583Z,53.40
2019-06-08T09:49:10.995Z,53.50
2019-06-08T09:51:37.759Z,53.70
2019-06-08T09:54:06.103Z,53.40
2019-06-08T09:56:32.131Z,53.80
2019-06-08T09:59:02.773Z,53.10
2019-06-08T10:01:28.614Z,53.10
2019-06-08T10:03:56.727Z,53.30
2019-06-08T10:06:23.479Z,53.10
2019-06-08T10:08:50.052Z,52.90
2019-06-08T10:11:16.737Z,52.30
2019-06-08T10:13:43.569Z,52.50
2019-06-08T10:16:10.947Z,51.60
2019-06-08T10:18:38.616Z,51.60
2019-06-08T10:21:06.311Z,51.00
2019-06-08T10:23:34.802Z,51.10
2019-06-08T10:26:02.903Z,51.10
2019-06-08T10:28:29.671Z,49.50
2019-06-08T10:30:59.645Z,48.30
2019-06-08T10:33:24.607Z,49.30
2019-06-08T10:35:50.952Z,48.30
2019-06-08T10:38:18.122Z,48.80
2019-06-08T10:41:06.956Z,49.30
2019-06-08T10:43:28.851Z,48.90
2019-06-08T10:45:59.717Z,49.10
2019-06-08T10:48:27.520Z,47.80
2019-06-08T10:50:53.482Z,47.30
2019-06-08T10:53:20.142Z,47.50
2019-06-08T10:55:48.175Z,47.20
2019-06-08T10:58:14.715Z,47.50
2019-06-08T11:00:41.326Z,47.50
2019-06-08T11:03:10.583Z,46.90
2019-06-08T11:05:36.345Z,47.10
2019-06-08T11:08:04.531Z,47.30
2019-06-08T11:10:31.880Z,47.10
2019-06-08T11:13:03.069Z,48.10
2019-06-08T11:15:29.396Z,49.10
2019-06-08T11:17:58.146Z,49.40
2019-06-08T11:20:23.803Z,49.60
2019-06-08T11:22:50.382Z,50.00
2019-06-08T11:25:19.767Z,50.30
2019-06-08T11:27:47.402Z,50.60
2019-06-08T11:30:23.420Z,51.20
2019-06-08T11:32:42.598Z,51.50
2019-06-08T11:35:12.350Z,51.50
2019-06-08T11:37:38.703Z,51.60
2019-06-08T11:40:11.861Z,51.90
2019-06-08T11:42:38.636Z,52.10
2019-06-08T11:45:09.111Z,51.70
2019-06-08T11:47:34.479Z,52.00
2019-06-08T11:50:02.822Z,51.70
2019-06-08T11:52:29.660Z,51.20
2019-06-08T11:54:57.327Z,51.30
2019-06-08T11:57:24.734Z,51.30
2019-06-08T11:59:51.334Z,51.50
2019-06-08T12:02:18.482Z,51.60
2019-06-08T12:04:44.968Z,51.90
2019-06-08T12:07:12.742Z,52.10
2019-06-08T12:09:39.604Z,51.50
2019-06-08T12:12:09.071Z,51.90
2019-06-08T12:14:34.485Z,51.60
2019-06-08T12:17:01.407Z,51.10
2019-06-08T12:19:28.346Z,50.40
2019-06-08T12:21:57.998Z,50.80
2019-06-08T12:24:40.520Z,50.60
2019-06-08T12:27:00.013Z,50.50
2019-06-08T12:29:21.159Z,50.40
2019-06-08T12:31:47.578Z,50.50
2019-06-08T12:34:13.786Z,50.50
2019-06-08T12:36:39.994Z,50.40
2019-06-08T12:39:07.793Z,50.20
2019-06-08T12:41:34.190Z,50.60
2019-06-08T12:44:00.680Z,50.90
2019-06-08T12:46:27.961Z,51.40
2019-06-08T12:48:54.992Z,51.80
2019-06-08T12:51:21.729Z,51.70
2019-06-08T12:53:48.536Z,51.70
2019-06-08T12:56:18.656Z,52.30
2019-06-08T12:58:43.498Z,50.70
2019-06-08T13:01:11.045Z,50.70
2019-06-08T13:03:38.025Z,48.70
2019-06-08T13:06:04.469Z,48.60
2019-06-08T13:08:30.868Z,47.90
2019-06-08T13:10:57.480Z,47.20
2019-06-08T13:13:28.066Z,46.90
2019-06-08T13:15:53.866Z,48.00
2019-06-08T13:18:21.483Z,49.20
2019-06-08T13:20:51.374Z,50.10
2019-06-08T13:23:19.580Z,51.50
2019-06-08T13:25:44.510Z,51.90
2019-06-08T13:28:15.184Z,53.60
2019-06-08T13:30:39.228Z,51.80
2019-06-08T13:33:07.933Z,51.50
2019-06-08T13:35:34.222Z,52.30
2019-06-08T13:38:00.489Z,53.30
2019-06-08T13:40:27.042Z,54.10
2019-06-08T13:42:53.503Z,55.60
2019-06-08T13:45:21.755Z,57.00
2019-06-08T13:47:50.521Z,57.50
2019-06-08T13:50:20.351Z,58.90
2019-06-08T13:52:48.336Z,59.00
2019-06-08T13:55:32.787Z,59.60
2019-06-08T13:57:42.873Z,61.60
2019-06-08T14:00:10.352Z,65.60
2019-06-08T14:02:36.779Z,66.40
2019-06-08T14:05:08.169Z,63.10
2019-06-08T14:07:37.883Z,57.80
2019-06-08T14:10:05.662Z,55.90
2019-06-08T14:12:32.046Z,56.00
2019-06-08T14:14:58.527Z,55.10
2019-06-08T14:17:25.881Z,55.00
2019-06-08T14:19:53.242Z,55.80
2019-06-08T14:22:22.606Z,55.90
2019-06-08T14:24:48.080Z,55.20
2019-06-08T14:27:14.298Z,55.40
2019-06-08T14:29:40.718Z,55.30
2019-06-08T14:32:07.857Z,55.30
2019-06-08T14:34:34.936Z,55.00
2019-06-08T14:37:01.508Z,55.80
2019-06-08T14:39:31.092Z,57.20
2019-06-08T14:41:57.786Z,58.50
2019-06-08T14:44:24.404Z,59.60
2019-06-08T14:46:51.093Z,61.20
2019-06-08T14:49:18.314Z,61.80
2019-06-08T14:51:49.012Z,61.70
2019-06-08T14:54:18.708Z,61.20
2019-06-08T14:56:47.460Z,61.30
2019-06-08T14:59:15.181Z,61.40
2019-06-08T15:01:42.967Z,61.50
2019-06-08T15:04:10.934Z,61.80
2019-06-08T15:06:38.547Z,61.80
2019-06-08T15:09:05.402Z,62.10
2019-06-08T15:11:35.163Z,61.90
2019-06-08T15:14:01.791Z,62.20
2019-06-08T15:16:32.446Z,62.50
2019-06-08T15:19:00.255Z,61.90
2019-06-08T15:21:32.648Z,61.30
2019-06-08T15:23:57.882Z,60.70
2019-06-08T15:26:32.818Z,61.00
2019-06-08T15:28:55.085Z,61.30
2019-06-08T15:31:23.175Z,62.50
2019-06-08T15:33:50.598Z,64.30
2019-06-08T15:36:20.262Z,65.80
2019-06-08T15:38:48.006Z,66.00
2019-06-08T15:41:14.948Z,66.40
2019-06-08T15:43:41.260Z,66.60
2019-06-08T15:46:08.668Z,67.10
2019-06-08T15:48:35.234Z,67.30
2019-06-08T15:51:02.162Z,67.20
2019-06-08T15:53:29.764Z,66.90
2019-06-08T15:55:58.353Z,66.70
2019-06-08T15:58:24.863Z,66.40
2019-06-08T16:00:55.465Z,65.80
2019-06-08T16:03:20.073Z,66.50
2019-06-08T16:05:46.624Z,65.60
2019-06-08T16:08:13.272Z,64.30
2019-06-08T16:10:39.820Z,63.90
2019-06-08T16:13:06.338Z,62.70
2019-06-08T16:15:33.424Z,62.20
2019-06-08T16:18:00.881Z,62.00
2019-06-08T16:20:27.987Z,62.50
2019-06-08T16:22:54.646Z,63.40
2019-06-08T16:25:21.028Z,60.90
2019-06-08T16:27:47.858Z,60.30
2019-06-08T16:30:14.982Z,60.20
2019-06-08T16:32:41.724Z,59.90
2019-06-08T16:35:08.531Z,58.80
2019-06-08T16:37:35.696Z,58.60
2019-06-08T16:40:04.557Z,58.30
2019-06-08T16:42:30.932Z,57.60
2019-06-08T16:44:57.386Z,57.30
2019-06-08T16:47:23.745Z,58.00
2019-06-08T16:49:50.285Z,57.20
2019-06-08T16:52:17.401Z,57.40
2019-06-08T16:54:44.370Z,56.40
2019-06-08T16:57:11.386Z,56.10
2019-06-08T16:59:38.688Z,55.70
2019-06-08T17:02:05.602Z,56.40
2019-06-08T17:04:33.228Z,56.70
2019-06-08T17:07:00.384Z,56.70
2019-06-08T17:09:26.864Z,56.50
2019-06-08T17:11:54.562Z,56.30
2019-06-08T17:14:24.794Z,56.10
2019-06-08T17:16:50.287Z,55.10
2019-06-08T17:19:16.980Z,55.50
2019-06-08T17:21:43.852Z,55.80
2019-06-08T17:24:10.293Z,54.30
2019-06-08T17:26:36.857Z,53.80
2019-06-08T17:29:03.824Z,54.30
2019-06-08T17:31:31.105Z,53.20
2019-06-08T17:33:57.511Z,53.00
2019-06-08T17:36:24.206Z,52.80
2019-06-08T17:38:50.989Z,52.80
2019-06-08T17:41:17.734Z,51.70
2019-06-08T17:43:44.510Z,52.20
2019-06-08T17:46:10.914Z,52.20
2019-06-08T17:48:38.678Z,52.20
2019-06-08T17:51:06.022Z,52.70
2019-06-08T17:53:32.757Z,52.20
2019-06-08T17:55:59.486Z,52.10
2019-06-08T17:58:26.427Z,51.90
2019-06-08T18:00:54.113Z,52.10
2019-06-08T18:03:22.376Z,52.50
2019-06-08T18:05:49.914Z,52.30
2019-06-08T18:08:17.471Z,52.80
2019-06-08T18:10:44.543Z,53.10
2019-06-08T18:13:11.420Z,53.20
2019-06-08T18:15:39.080Z,53.20
2019-06-08T18:18:08.554Z,53.60
2019-06-08T18:20:34.597Z,53.90
2019-06-08T18:23:01.320Z,53.90
2019-06-08T18:25:28.128Z,53.80
2019-06-08T18:28:08.202Z,54.00
2019-06-08T18:30:23.324Z,54.00
2019-06-08T18:32:49.907Z,54.00
2019-06-08T18:35:18.251Z,54.20
2019-06-08T18:37:46.181Z,54.10
2019-06-08T18:40:14.957Z,54.20
2019-06-08T18:42:43.142Z,54.40
2019-06-08T18:45:11.011Z,54.50
2019-06-08T18:47:39.335Z,54.60
2019-06-08T18:50:08.812Z,54.60
2019-06-08T18:52:36.027Z,54.70
2019-06-08T18:55:05.007Z,54.60
2019-06-08T18:57:31.350Z,54.90
2019-06-08T18:59:57.842Z,54.80
2019-06-08T19:02:25.914Z,55.00
2019-06-08T19:04:53.089Z,55.00
2019-06-08T19:07:19.818Z,55.00
2019-06-08T19:09:48.065Z,54.80
2019-06-08T19:12:16.915Z,54.90
2019-06-08T19:14:43.584Z,54.80
2019-06-08T19:17:10.740Z,54.80
2019-06-08T19:19:41.226Z,54.80
2019-06-08T19:22:08.522Z,54.90
2019-06-08T19:24:34.331Z,54.90
2019-06-08T19:27:01.547Z,54.80
2019-06-08T19:29:28.991Z,54.40
2019-06-08T19:31:57.291Z,54.90
2019-06-08T19:34:24.150Z,54.80
2019-06-08T19:36:54.165Z,54.70
2019-06-08T19:39:19.511Z,54.90
2019-06-08T19:41:46.934Z,55.00
2019-06-08T19:44:14.704Z,54.90
2019-06-08T19:46:42.436Z,55.10
2019-06-08T19:49:09.017Z,55.10
2019-06-08T19:51:38.204Z,55.30
2019-06-08T19:54:04.277Z,55.40
2019-06-08T19:56:30.895Z,55.50
2019-06-08T19:59:04.519Z,55.80
2019-06-08T20:01:27.693Z,55.70
2019-06-08T20:03:54.291Z,55.60
2019-06-08T20:06:21.312Z,55.70
2019-06-08T20:08:50.216Z,55.80
2019-06-08T20:11:17.294Z,55.80
2019-06-08T20:13:43.793Z,55.80
2019-06-08T20:16:10.495Z,55.90
2019-06-08T20:18:37.533Z,55.90
2019-06-08T20:21:04.307Z,55.90
2019-06-08T20:23:30.950Z,55.90
2019-06-08T20:26:00.617Z,55.90
2019-06-08T20:28:28.273Z,56.10
2019-06-08T20:30:54.495Z,56.20
2019-06-08T20:33:21.083Z,56.30
2019-06-08T20:35:48.521Z,56.40
2019-06-08T20:38:17.705Z,56.50
2019-06-08T20:40:44.414Z,56.70
2019-06-08T20:43:11.196Z,56.80
2019-06-08T20:45:38.119Z,56.80
2019-06-08T20:48:04.547Z,56.90
2019-06-08T20:50:30.831Z,56.90
2019-06-08T20:52:57.799Z,56.90
2019-06-08T20:55:24.130Z,56.80
2019-06-08T20:57:51.244Z,56.80
2019-06-08T21:00:18.929Z,56.80
2019-06-08T21:02:46.396Z,56.90
2019-06-08T21:05:13.456Z,57.00
2019-06-08T21:07:39.867Z,57.20
2019-06-08T21:10:08.570Z,57.40
2019-06-08T21:12:34.321Z,57.60
2019-06-08T21:15:00.698Z,57.80
2019-06-08T21:17:27.562Z,57.80
2019-06-08T21:19:55.576Z,57.90
2019-06-08T21:22:22.374Z,57.80
2019-06-08T21:24:51.995Z,57.80
2019-06-08T21:27:17.358Z,58.00
2019-06-08T21:29:49.093Z,58.10
2019-06-08T21:32:11.999Z,58.10
2019-06-08T21:34:38.314Z,58.10
2019-06-08T21:37:04.682Z,58.20
2019-06-08T21:39:30.923Z,58.30
2019-06-08T21:42:01.311Z,58.40
2019-06-08T21:44:27.854Z,58.40
2019-06-08T21:46:55.236Z,58.60
2019-06-08T21:49:22.368Z,58.60
2019-06-08T21:51:51.392Z,58.70
2019-06-08T21:54:17.587Z,58.90
2019-06-08T21:56:44.204Z,59.50
2019-06-08T21:59:10.755Z,58.90
2019-06-08T22:01:38.560Z,58.80
2019-06-08T22:04:05.079Z,58.70
2019-06-08T22:06:31.462Z,58.70
2019-06-08T22:09:00.815Z,58.60
2019-06-08T22:11:25.986Z,58.60
2019-06-08T22:13:52.799Z,58.70
2019-06-08T22:16:19.405Z,58.70
2019-06-08T22:18:47.474Z,58.90
2019-06-08T22:21:14.331Z,58.90
2019-06-08T22:23:40.636Z,59.00
2019-06-08T22:26:08.367Z,58.80
2019-06-08T22:28:34.813Z,58.80
2019-06-08T22:31:01.771Z,58.80
2019-06-08T22:33:28.220Z,58.90
2019-06-08T22:35:55.903Z,59.00
2019-06-08T22:38:22.659Z,58.90
2019-06-08T22:40:48.972Z,58.80
2019-06-08T22:43:17.956Z,58.70
2019-06-08T22:45:43.774Z,58.70
2019-06-08T22:48:10.007Z,58.70
2019-06-08T22:50:38.241Z,58.80
2019-06-08T22:53:04.509Z,58.80
2019-06-08T22:55:31.003Z,58.80
2019-06-08T22:57:59.905Z,58.70
2019-06-08T23:00:27.975Z,58.60
2019-06-08T23:02:54.941Z,58.60
2019-06-08T23:05:22.357Z,58.50
2019-06-08T23:07:48.905Z,58.70
2019-06-08T23:10:17.491Z,58.60
2019-06-08T23:12:44.031Z,58.60
2019-06-08T23:15:10.504Z,58.50
2019-06-08T23:17:38.613Z,58.40
2019-06-08T23:20:08.681Z,58.30
2019-06-08T23:22:35.206Z,58.10
2019-06-08T23:25:03.317Z,58.20
2019-06-08T23:27:29.983Z,58.30
2019-06-08T23:29:58.700Z,58.30
2019-06-08T23:32:24.787Z,58.20
2019-06-08T23:34:51.034Z,58.30
2019-06-08T23:37:18.286Z,58.20
2019-06-08T23:39:46.974Z,58.20
2019-06-08T23:42:13.260Z,58.80
2019-06-08T23:44:39.589Z,58.20
2019-06-08T23:47:06.135Z,58.20
2019-06-08T23:49:32.512Z,58.30
2019-06-08T23:52:01.141Z,58.20
2019-06-08T23:54:27.999Z,58.10
2019-06-08T23:56:54.520Z,58.20
2019-06-08T23:59:20.737Z,58.30
